OH53 weather

Ohio Bldg Authority Heliport
Columbus, Ohio, United States

Public forecast

Using degrees Fahrenheit for public forecast. Weather courtesy of forecast.io.

METAR (pilot weather report)

Closest report is John Glenn Columbus International Airport, 5.4 nm (10.0 km) ENE. Retrieved 2019/05/22 13:51 UTC (22 minutes ago):

KCMH 221351Z 16007KT 10SM BKN250 18/10 A3004 RMK AO2 SLP170 T01830100

TAF (pilot weather forecast)

Closest forecast is John Glenn Columbus International Airport, 5.4 nm (10.0 km) ENE. Retrieved 2019/05/22 12:36 UTC (2 hours ago):

TAF KCMH 221132Z 2212/2312 12007KT P6SM SCT100 BKN250 FM221600 19011G20KT P6SM BKN070 FM222000 20012G20KT P6SM VCTS BKN050CB FM222300 21009KT P6SM SCT050 FM230200 17005KT P6SM SCT050